Time;durP1;ratioP1;P1;durP2;ratioP2;P2;SDS_P1;SDS_P2;PMS_P1;PMS_P2;Temp;Humidity;BMP_temperature;BMP_pressure;BME280_temperature;BME280_humidity;BME280_pressure;Samples;Min_cycle;Max_cycle;Signal;HPM_P1;HPM_P2
2023/02/18 00:00:22;;;;;;;6.35;1.27;;;;;;;;;;5020037;28;20030;-72
2023/02/18 00:02:48;;;;;;;12.30;1.70;;;;;;;;;;5020137;28;20068;-73
2023/02/18 00:05:15;;;;;;;5.32;1.30;;;;;;;;;;5015945;28;20034;-72
2023/02/18 00:07:41;;;;;;;6.68;1.30;;;;;;;;;;5012801;28;20045;-72
2023/02/18 00:10:10;;;;;;;9.13;1.48;;;;;;;;;;5014846;28;20022;-72
2023/02/18 00:12:35;;;;;;;8.70;2.05;;;;;;;;;;5002452;28;20035;-72
2023/02/18 00:15:01;;;;;;;7.60;1.42;;;;;;;;;;5012231;28;20492;-72
2023/02/18 00:17:28;;;;;;;6.97;1.38;;;;;;;;;;5013742;28;20105;-72
2023/02/18 00:19:53;;;;;;;9.02;1.27;;;;;;;;;;5013401;28;20040;-72
2023/02/18 00:22:18;;;;;;;14.27;1.50;;;;;;;;;;5000070;28;20042;-72
2023/02/18 00:24:44;;;;;;;6.20;1.15;;;;;;;;;;5011633;28;20034;-72
2023/02/18 00:27:09;;;;;;;12.40;1.58;;;;;;;;;;5011032;28;20037;-73
2023/02/18 00:29:35;;;;;;;9.27;1.35;;;;;;;;;;5015074;28;20076;-72
2023/02/18 00:32:00;;;;;;;6.82;1.17;;;;;;;;;;5010179;28;20037;-72
2023/02/18 00:34:26;;;;;;;10.73;1.40;;;;;;;;;;5007345;28;20113;-72
2023/02/18 00:36:51;;;;;;;9.88;1.40;;;;;;;;;;5005732;28;20443;-72
2023/02/18 00:39:17;;;;;;;6.22;1.20;;;;;;;;;;5013110;28;20112;-72
2023/02/18 00:41:42;;;;;;;5.00;1.05;;;;;;;;;;5013383;28;20393;-72
2023/02/18 00:44:09;;;;;;;4.93;1.33;;;;;;;;;;5011189;28;20042;-72
2023/02/18 00:46:34;;;;;;;9.60;1.73;;;;;;;;;;5026169;28;20038;-72
2023/02/18 00:49:00;;;;;;;5.85;1.30;;;;;;;;;;5004948;28;20040;-73
2023/02/18 00:51:26;;;;;;;7.47;1.35;;;;;;;;;;5014079;28;20050;-72
2023/02/18 00:53:51;;;;;;;7.32;1.63;;;;;;;;;;5011906;28;20030;-72
2023/02/18 00:56:17;;;;;;;6.20;1.52;;;;;;;;;;5018652;28;20099;-73
2023/02/18 00:58:43;;;;;;;6.18;1.33;;;;;;;;;;5012967;28;20038;-72
2023/02/18 01:01:09;;;;;;;9.23;1.63;;;;;;;;;;5018284;28;20042;-73
2023/02/18 01:03:36;;;;;;;7.47;1.70;;;;;;;;;;5012420;28;20041;-72
2023/02/18 01:06:02;;;;;;;11.63;1.85;;;;;;;;;;5002504;28;20039;-72
2023/02/18 01:08:28;;;;;;;12.82;2.00;;;;;;;;;;5019170;28;20034;-72
2023/02/18 01:10:54;;;;;;;13.20;1.45;;;;;;;;;;5008448;28;20033;-72
2023/02/18 01:13:21;;;;;;;6.80;1.42;;;;;;;;;;5005856;28;20412;-72
2023/02/18 01:15:46;;;;;;;10.18;2.00;;;;;;;;;;5007117;28;20485;-72
2023/02/18 01:18:12;;;;;;;9.40;1.88;;;;;;;;;;5011793;28;20109;-73
2023/02/18 01:20:40;;;;;;;8.75;1.20;;;;;;;;;;5019849;28;20041;-72
2023/02/18 01:23:05;;;;;;;7.60;1.88;;;;;;;;;;5015182;28;20041;-72
2023/02/18 01:25:31;;;;;;;8.23;1.80;;;;;;;;;;5007083;28;20036;-72
2023/02/18 01:27:57;;;;;;;12.80;1.55;;;;;;;;;;5016584;28;20040;-72
2023/02/18 01:30:22;;;;;;;5.40;1.33;;;;;;;;;;5020412;28;20048;-72
2023/02/18 01:32:48;;;;;;;16.27;2.05;;;;;;;;;;5012322;28;20030;-72
2023/02/18 01:35:14;;;;;;;5.47;2.15;;;;;;;;;;5018698;28;20091;-73
2023/02/18 01:37:40;;;;;;;18.48;2.13;;;;;;;;;;5011170;28;20045;-72
2023/02/18 01:40:08;;;;;;;10.75;1.70;;;;;;;;;;5017063;28;20124;-72
2023/02/18 01:42:33;;;;;;;12.40;1.63;;;;;;;;;;5027991;28;20057;-72
2023/02/18 01:45:33;;;;;;;7.68;1.77;;;;;;;;;;5014975;28;20042;-72
2023/02/18 01:48:06;;;;;;;9.27;1.40;;;;;;;;;;5012845;28;20034;-72
2023/02/18 01:50:38;;;;;;;12.43;1.92;;;;;;;;;;5033511;28;20050;-72
2023/02/18 01:53:03;;;;;;;10.32;1.65;;;;;;;;;;5011966;28;20477;-72
2023/02/18 01:55:29;;;;;;;15.48;2.15;;;;;;;;;;5015981;28;20030;-72
2023/02/18 01:57:55;;;;;;;10.05;1.20;;;;;;;;;;5030110;28;20042;-72
2023/02/18 02:00:20;;;;;;;9.93;1.88;;;;;;;;;;5019493;28;20046;-72
2023/02/18 02:02:47;;;;;;;8.88;1.52;;;;;;;;;;5013533;28;20038;-72
2023/02/18 02:05:13;;;;;;;10.00;1.50;;;;;;;;;;5008457;28;20536;-73
2023/02/18 02:07:40;;;;;;;8.20;1.40;;;;;;;;;;5014646;28;20038;-72
2023/02/18 02:10:06;;;;;;;8.15;1.73;;;;;;;;;;5009779;28;20471;-72
2023/02/18 02:12:38;;;;;;;12.38;1.55;;;;;;;;;;5014065;28;20049;-72
2023/02/18 02:15:12;;;;;;;11.73;1.75;;;;;;;;;;5022585;28;20038;-72
2023/02/18 02:17:37;;;;;;;7.63;1.40;;;;;;;;;;5015950;28;20516;-72
2023/02/18 02:20:40;;;;;;;8.27;1.75;;;;;;;;;;5023573;28;20065;-72
2023/02/18 02:23:36;;;;;;;7.25;1.83;;;;;;;;;;5015632;28;20064;-73
2023/02/18 02:26:38;;;;;;;13.75;1.60;;;;;;;;;;5014418;28;20046;-72
2023/02/18 02:29:28;;;;;;;9.15;1.30;;;;;;;;;;5009425;28;20525;-72
2023/02/18 02:32:24;;;;;;;5.28;1.33;;;;;;;;;;5015326;28;20063;-73
2023/02/18 02:35:22;;;;;;;7.20;1.50;;;;;;;;;;5008565;28;20030;-72
2023/02/18 02:38:06;;;;;;;5.70;1.30;;;;;;;;;;5014420;28;20169;-72
2023/02/18 02:40:37;;;;;;;8.48;1.55;;;;;;;;;;5012139;28;20057;-72
2023/02/18 02:43:17;;;;;;;8.85;1.42;;;;;;;;;;5015235;28;20041;-72
2023/02/18 02:45:43;;;;;;;5.72;1.70;;;;;;;;;;5038353;28;20025;-72
2023/02/18 02:48:21;;;;;;;12.10;1.88;;;;;;;;;;5015408;28;20116;-72
2023/02/18 02:51:05;;;;;;;5.32;1.42;;;;;;;;;;5015237;28;20046;-72
2023/02/18 02:53:33;;;;;;;8.02;1.48;;;;;;;;;;5024724;28;20064;-72
2023/02/18 02:55:58;;;;;;;11.30;2.28;;;;;;;;;;5011571;28;20121;-72
2023/02/18 02:58:24;;;;;;;11.55;1.63;;;;;;;;;;5012083;28;20126;-72
2023/02/18 03:00:56;;;;;;;11.13;1.70;;;;;;;;;;5008597;28;20077;-72
2023/02/18 03:03:30;;;;;;;8.25;1.50;;;;;;;;;;5019883;28;20509;-72
2023/02/18 03:06:13;;;;;;;6.55;1.40;;;;;;;;;;5020160;28;20497;-73
2023/02/18 03:09:20;;;;;;;11.57;1.63;;;;;;;;;;5015076;28;20037;-72
2023/02/18 03:11:58;;;;;;;10.80;2.05;;;;;;;;;;5015104;28;20030;-72
2023/02/18 03:14:58;;;;;;;6.63;1.45;;;;;;;;;;5014538;28;20384;-72
2023/02/18 03:17:31;;;;;;;5.95;1.13;;;;;;;;;;5013216;28;20057;-72
2023/02/18 03:20:12;;;;;;;6.70;1.63;;;;;;;;;;5021554;28;20107;-72
2023/02/18 03:22:46;;;;;;;7.55;1.58;;;;;;;;;;5003445;28;20114;-72
2023/02/18 03:25:12;;;;;;;5.30;1.83;;;;;;;;;;5013818;28;20026;-72
2023/02/18 03:27:46;;;;;;;5.13;1.17;;;;;;;;;;5008973;28;20470;-72
2023/02/18 03:30:15;;;;;;;4.78;1.00;;;;;;;;;;5013457;28;20037;-72
2023/02/18 03:32:41;;;;;;;6.28;0.85;;;;;;;;;;5011053;28;20029;-72
2023/02/18 03:35:15;;;;;;;2.20;1.00;;;;;;;;;;5016126;28;20033;-72
2023/02/18 03:37:42;;;;;;;;;;;;;;;;;;5008613;28;20046;-72
2023/02/18 03:40:09;;;;;;;7.28;1.45;;;;;;;;;;5020710;28;19913;-72
2023/02/18 03:42:35;;;;;;;5.13;1.25;;;;;;;;;;4996995;28;20030;-72
2023/02/18 03:45:00;;;;;;;5.18;1.10;;;;;;;;;;5011339;28;20399;-72
2023/02/18 03:47:26;;;;;;;6.70;1.10;;;;;;;;;;5009100;28;20117;-72
2023/02/18 03:49:52;;;;;;;3.88;0.98;;;;;;;;;;5029071;28;20105;-73
2023/02/18 03:52:17;;;;;;;4.28;1.02;;;;;;;;;;5017422;28;20034;-72
2023/02/18 03:54:43;;;;;;;2.83;0.80;;;;;;;;;;5018579;28;20037;-72
2023/02/18 03:57:08;;;;;;;2.22;0.77;;;;;;;;;;5014280;28;20045;-72
2023/02/18 03:59:33;;;;;;;3.53;1.08;;;;;;;;;;5012505;28;20042;-72
2023/02/18 04:01:59;;;;;;;3.85;0.80;;;;;;;;;;5010176;28;20038;-72
2023/02/18 04:04:25;;;;;;;2.78;0.90;;;;;;;;;;5016721;28;20022;-72
2023/02/18 04:06:50;;;;;;;2.33;0.88;;;;;;;;;;5006082;28;20034;-72
2023/02/18 04:09:16;;;;;;;1.60;1.02;;;;;;;;;;5008963;28;20033;-73
2023/02/18 04:11:41;;;;;;;3.20;1.05;;;;;;;;;;5013281;28;20034;-73
2023/02/18 04:14:07;;;;;;;3.42;1.02;;;;;;;;;;5013723;28;20042;-72
2023/02/18 04:16:32;;;;;;;3.88;1.10;;;;;;;;;;5018490;28;20065;-72
2023/02/18 04:18:58;;;;;;;2.67;1.00;;;;;;;;;;5014508;28;20041;-73
2023/02/18 04:21:24;;;;;;;1.52;0.88;;;;;;;;;;5034502;28;20042;-72
2023/02/18 04:23:49;;;;;;;3.72;0.90;;;;;;;;;;5013939;28;20037;-72
2023/02/18 04:26:15;;;;;;;2.60;0.77;;;;;;;;;;5015550;28;20030;-74
2023/02/18 04:28:40;;;;;;;3.25;0.95;;;;;;;;;;5007027;28;20038;-73
2023/02/18 04:31:06;;;;;;;5.72;1.10;;;;;;;;;;5014661;28;20168;-72
2023/02/18 04:33:31;;;;;;;2.92;1.08;;;;;;;;;;5028832;28;20030;-72
2023/02/18 04:35:57;;;;;;;5.28;1.25;;;;;;;;;;5013780;28;20085;-72
2023/02/18 04:38:22;;;;;;;7.22;1.27;;;;;;;;;;4996866;28;20367;-73
2023/02/18 04:40:48;;;;;;;2.13;0.85;;;;;;;;;;5003024;28;20030;-73
2023/02/18 04:43:13;;;;;;;4.95;1.05;;;;;;;;;;4999795;28;20529;-72
2023/02/18 04:45:38;;;;;;;1.65;0.93;;;;;;;;;;5014794;28;20034;-72
2023/02/18 04:48:04;;;;;;;6.78;1.15;;;;;;;;;;5003424;28;20112;-72
2023/02/18 04:50:30;;;;;;;4.70;0.90;;;;;;;;;;5013072;28;20069;-72
2023/02/18 04:52:55;;;;;;;4.20;0.90;;;;;;;;;;5014127;28;20030;-73
2023/02/18 04:55:21;;;;;;;3.72;0.85;;;;;;;;;;5014336;28;20034;-72
2023/02/18 04:57:46;;;;;;;2.20;0.80;;;;;;;;;;5018301;28;20045;-72
2023/02/18 05:00:15;;;;;;;5.45;0.80;;;;;;;;;;5014491;28;20045;-72
2023/02/18 05:02:40;;;;;;;5.18;0.80;;;;;;;;;;5018472;28;20062;-72
2023/02/18 05:05:06;;;;;;;1.92;0.70;;;;;;;;;;5013439;28;20486;-72
2023/02/18 05:07:31;;;;;;;2.30;0.90;;;;;;;;;;5007469;28;20081;-72
2023/02/18 05:09:57;;;;;;;3.20;0.77;;;;;;;;;;5009333;28;20376;-73
2023/02/18 05:12:22;;;;;;;4.43;1.45;;;;;;;;;;5013138;28;20103;-72
2023/02/18 05:14:47;;;;;;;1.88;0.65;;;;;;;;;;5017362;28;20423;-73
2023/02/18 05:17:13;;;;;;;5.38;1.17;;;;;;;;;;5009275;28;20033;-72
2023/02/18 05:19:38;;;;;;;1.90;0.70;;;;;;;;;;5018025;28;20038;-72
2023/02/18 05:22:04;;;;;;;3.47;0.90;;;;;;;;;;4996813;28;20038;-72
2023/02/18 05:24:29;;;;;;;2.15;0.68;;;;;;;;;;5016581;28;20030;-72
2023/02/18 05:26:54;;;;;;;1.83;0.85;;;;;;;;;;5016228;28;20064;-74
2023/02/18 05:29:20;;;;;;;7.78;1.35;;;;;;;;;;5021029;28;20104;-72
2023/02/18 05:31:45;;;;;;;5.03;1.05;;;;;;;;;;5011726;28;20042;-72
2023/02/18 05:34:11;;;;;;;2.10;0.65;;;;;;;;;;5012573;28;20037;-72
2023/02/18 05:36:36;;;;;;;0.95;0.60;;;;;;;;;;5016712;28;20049;-72
2023/02/18 05:39:02;;;;;;;4.15;1.00;;;;;;;;;;5017838;28;20064;-72
2023/02/18 05:41:27;;;;;;;2.85;0.75;;;;;;;;;;5016269;28;20462;-72
2023/02/18 05:46:37;;;;;;;1.88;0.90;;;;;;;;;;5013419;28;20091;-72
2023/02/18 05:49:02;;;;;;;6.45;0.90;;;;;;;;;;5012199;28;20045;-72
2023/02/18 05:51:28;;;;;;;1.58;0.70;;;;;;;;;;5014033;28;20054;-72
2023/02/18 05:53:54;;;;;;;4.32;1.02;;;;;;;;;;5014692;28;20477;-72
2023/02/18 05:56:20;;;;;;;0.80;0.63;;;;;;;;;;5011613;28;20041;-73
2023/02/18 05:58:45;;;;;;;1.83;0.63;;;;;;;;;;5015989;28;20040;-74
2023/02/18 06:01:11;;;;;;;4.00;0.80;;;;;;;;;;5025035;28;20041;-73
2023/02/18 06:03:36;;;;;;;0.98;0.50;;;;;;;;;;5017294;28;20087;-72
2023/02/18 06:06:02;;;;;;;1.90;0.73;;;;;;;;;;5019532;28;20030;-73
2023/02/18 06:08:27;;;;;;;3.80;0.80;;;;;;;;;;5017664;28;20477;-73
2023/02/18 06:10:53;;;;;;;3.03;0.93;;;;;;;;;;5011148;28;20046;-72
2023/02/18 06:13:19;;;;;;;1.63;0.88;;;;;;;;;;5007836;28;20065;-72
2023/02/18 06:15:44;;;;;;;1.23;0.70;;;;;;;;;;5018684;28;20050;-72
2023/02/18 06:18:10;;;;;;;4.18;0.95;;;;;;;;;;5015849;28;20545;-72
2023/02/18 06:20:35;;;;;;;2.80;0.88;;;;;;;;;;5020147;28;20092;-72
2023/02/18 06:23:01;;;;;;;3.53;1.08;;;;;;;;;;4998397;28;20038;-72
2023/02/18 06:25:26;;;;;;;2.67;0.80;;;;;;;;;;5011585;28;20069;-72
2023/02/18 06:27:51;;;;;;;5.15;1.00;;;;;;;;;;5007060;28;20046;-73
2023/02/18 06:30:18;;;;;;;2.28;0.90;;;;;;;;;;5010876;28;20069;-73
2023/02/18 06:32:43;;;;;;;2.30;0.90;;;;;;;;;;5015638;28;20048;-72
2023/02/18 06:35:09;;;;;;;2.88;0.93;;;;;;;;;;5022995;28;20112;-72
2023/02/18 06:37:34;;;;;;;2.30;1.00;;;;;;;;;;5015631;28;20121;-72
2023/02/18 06:40:00;;;;;;;3.13;0.95;;;;;;;;;;5020039;28;20061;-72
2023/02/18 06:42:25;;;;;;;3.03;1.20;;;;;;;;;;5015468;28;20064;-72
2023/02/18 06:44:51;;;;;;;2.53;0.90;;;;;;;;;;5020563;28;20113;-73
2023/02/18 06:47:16;;;;;;;4.82;1.00;;;;;;;;;;5016301;28;20144;-72
2023/02/18 06:49:41;;;;;;;5.05;1.15;;;;;;;;;;5016947;28;20033;-72
2023/02/18 06:52:07;;;;;;;1.50;0.80;;;;;;;;;;5014933;28;20405;-72
2023/02/18 06:54:33;;;;;;;3.13;0.90;;;;;;;;;;5035705;28;20374;-72
2023/02/18 06:56:58;;;;;;;3.72;1.00;;;;;;;;;;5005983;28;20042;-72
2023/02/18 06:59:24;;;;;;;1.42;0.70;;;;;;;;;;5013189;28;20038;-73
2023/02/18 07:01:49;;;;;;;2.00;0.77;;;;;;;;;;5019314;28;20041;-72
2023/02/18 07:04:15;;;;;;;1.92;0.85;;;;;;;;;;5016075;28;20030;-72
2023/02/18 07:06:40;;;;;;;2.63;0.98;;;;;;;;;;5015280;28;20034;-72
2023/02/18 07:09:06;;;;;;;3.88;1.33;;;;;;;;;;5015853;28;20056;-72
2023/02/18 07:11:32;;;;;;;3.28;0.80;;;;;;;;;;5014137;28;20052;-72
2023/02/18 07:13:57;;;;;;;1.83;0.85;;;;;;;;;;5013607;28;20037;-74
2023/02/18 07:16:22;;;;;;;4.15;0.77;;;;;;;;;;5020282;28;20050;-72
2023/02/18 07:18:48;;;;;;;1.92;0.70;;;;;;;;;;5007524;28;20031;-72
2023/02/18 07:21:13;;;;;;;3.30;0.98;;;;;;;;;;5014233;28;20092;-72
2023/02/18 07:23:39;;;;;;;2.70;1.00;;;;;;;;;;5005886;28;20042;-72
2023/02/18 07:26:06;;;;;;;1.90;0.75;;;;;;;;;;5014975;28;20037;-72
2023/02/18 07:28:31;;;;;;;1.70;0.80;;;;;;;;;;5031103;28;20109;-73
2023/02/18 07:30:57;;;;;;;7.10;0.90;;;;;;;;;;5014152;28;20447;-72
2023/02/18 07:33:22;;;;;;;3.95;1.00;;;;;;;;;;4998307;28;20038;-72
2023/02/18 07:35:55;;;;;;;7.65;1.00;;;;;;;;;;5013457;28;20033;-73
2023/02/18 07:38:21;;;;;;;3.03;0.90;;;;;;;;;;5007814;28;20038;-74
2023/02/18 07:40:46;;;;;;;4.55;0.85;;;;;;;;;;5015618;28;20037;-72
2023/02/18 07:43:12;;;;;;;5.50;1.02;;;;;;;;;;5014306;28;20076;-72
2023/02/18 07:45:38;;;;;;;6.47;0.93;;;;;;;;;;5023052;28;20034;-72
2023/02/18 07:48:03;;;;;;;6.90;0.90;;;;;;;;;;5010929;28;20073;-72
2023/02/18 07:50:33;;;;;;;2.70;1.10;;;;;;;;;;5020579;28;20058;-72
2023/02/18 07:52:59;;;;;;;4.53;0.75;;;;;;;;;;5016794;28;20113;-72
2023/02/18 07:55:47;;;;;;;4.80;1.10;;;;;;;;;;5020998;28;20041;-72
2023/02/18 07:58:10;;;;;;;5.47;1.13;;;;;;;;;;5012381;28;20464;-72
2023/02/18 08:00:36;;;;;;;6.95;1.10;;;;;;;;;;5018884;28;20029;-73
2023/02/18 08:03:02;;;;;;;4.47;1.00;;;;;;;;;;5015576;28;20051;-72
2023/02/18 08:05:27;;;;;;;5.32;1.10;;;;;;;;;;5028659;28;20084;-72
2023/02/18 08:07:53;;;;;;;4.55;1.30;;;;;;;;;;5016298;28;20049;-72
2023/02/18 08:10:18;;;;;;;3.97;1.30;;;;;;;;;;5004175;28;20033;-73
2023/02/18 08:12:44;;;;;;;3.75;1.40;;;;;;;;;;5004379;28;20034;-72
2023/02/18 08:15:09;;;;;;;7.75;1.60;;;;;;;;;;5019695;28;20038;-72
2023/02/18 08:17:34;;;;;;;2.63;1.50;;;;;;;;;;5009017;28;20033;-72
2023/02/18 08:20:00;;;;;;;4.75;1.67;;;;;;;;;;5012807;28;20037;-73
2023/02/18 08:22:25;;;;;;;4.63;1.42;;;;;;;;;;5003274;28;20039;-72
2023/02/18 08:24:54;;;;;;;5.05;1.83;;;;;;;;;;5009505;28;20109;-72
2023/02/18 08:27:19;;;;;;;6.57;1.20;;;;;;;;;;5007283;28;20453;-72
2023/02/18 08:29:45;;;;;;;3.42;1.55;;;;;;;;;;5017651;28;20030;-73
2023/02/18 08:32:10;;;;;;;3.80;1.60;;;;;;;;;;5022137;28;20116;-72
2023/02/18 08:34:36;;;;;;;2.83;1.20;;;;;;;;;;5006858;28;20029;-72
2023/02/18 08:37:02;;;;;;;6.03;1.40;;;;;;;;;;5002054;28;20547;-73
2023/02/18 08:39:27;;;;;;;3.50;1.30;;;;;;;;;;5020067;28;20458;-72
2023/02/18 08:41:53;;;;;;;4.70;1.30;;;;;;;;;;5012850;28;20045;-72
2023/02/18 08:44:18;;;;;;;1.95;0.93;;;;;;;;;;5013360;28;20057;-72
2023/02/18 08:46:45;;;;;;;3.97;1.05;;;;;;;;;;5000528;28;20109;-73
2023/02/18 08:49:10;;;;;;;2.60;1.33;;;;;;;;;;5006225;28;20032;-73
2023/02/18 08:51:36;;;;;;;4.03;1.85;;;;;;;;;;5004919;28;20429;-72
2023/02/18 08:54:01;;;;;;;2.25;1.10;;;;;;;;;;5012221;28;20029;-72
2023/02/18 08:56:27;;;;;;;1.70;0.85;;;;;;;;;;5027029;28;20093;-73
2023/02/18 08:58:52;;;;;;;0.95;0.60;;;;;;;;;;5001277;28;20058;-73
2023/02/18 09:01:19;;;;;;;3.08;1.05;;;;;;;;;;5000455;28;20124;-73
2023/02/18 09:03:45;;;;;;;1.52;0.75;;;;;;;;;;5014682;28;20474;-72
2023/02/18 09:06:10;;;;;;;3.83;1.10;;;;;;;;;;4997096;28;20042;-72
2023/02/18 09:08:36;;;;;;;3.08;1.10;;;;;;;;;;5009656;28;20080;-73
2023/02/18 09:11:03;;;;;;;1.92;0.80;;;;;;;;;;5005495;28;20026;-72
2023/02/18 09:13:29;;;;;;;2.45;1.08;;;;;;;;;;5030690;28;20117;-72
2023/02/18 09:16:03;;;;;;;2.58;0.95;;;;;;;;;;5014753;28;20116;-73
2023/02/18 09:18:29;;;;;;;3.35;0.93;;;;;;;;;;5032330;28;20033;-72
2023/02/18 09:20:56;;;;;;;2.38;0.90;;;;;;;;;;5014525;28;20446;-72
2023/02/18 09:23:22;;;;;;;2.10;1.15;;;;;;;;;;5027777;28;20038;-73
2023/02/18 09:25:48;;;;;;;3.42;1.05;;;;;;;;;;5016185;28;20430;-74
2023/02/18 09:28:13;;;;;;;1.80;0.82;;;;;;;;;;5016522;28;20079;-73
2023/02/18 09:30:39;;;;;;;1.98;0.93;;;;;;;;;;5015138;28;20087;-72
2023/02/18 09:33:04;;;;;;;2.33;0.95;;;;;;;;;;4930585;28;20047;-72
2023/02/18 09:35:30;;;;;;;2.95;1.13;;;;;;;;;;4994616;28;20036;-73
2023/02/18 09:37:56;;;;;;;2.30;1.00;;;;;;;;;;5005527;28;20042;-73
2023/02/18 09:40:31;;;;;;;5.30;1.15;;;;;;;;;;5026961;28;20045;-74
2023/02/18 09:42:57;;;;;;;3.38;1.13;;;;;;;;;;5006227;28;20540;-73
2023/02/18 09:45:23;;;;;;;2.58;0.98;;;;;;;;;;5010893;28;20046;-74
2023/02/18 09:47:49;;;;;;;3.55;0.93;;;;;;;;;;5017954;28;20045;-73
2023/02/18 09:50:26;;;;;;;2.42;1.10;;;;;;;;;;5019429;28;20053;-73
2023/02/18 09:52:52;;;;;;;2.72;1.10;;;;;;;;;;5017905;28;20042;-73
2023/02/18 09:55:32;;;;;;;3.58;1.08;;;;;;;;;;5011391;28;20478;-73
2023/02/18 09:58:07;;;;;;;2.47;0.98;;;;;;;;;;5018913;28;20037;-75
2023/02/18 10:00:36;;;;;;;2.80;1.05;;;;;;;;;;5013606;28;20117;-73
2023/02/18 10:03:17;;;;;;;3.05;1.10;;;;;;;;;;5011263;28;20405;-73
2023/02/18 10:06:02;;;;;;;2.92;1.20;;;;;;;;;;5015050;28;20120;-73
2023/02/18 10:08:39;;;;;;;5.00;1.85;;;;;;;;;;5014786;28;20042;-73
2023/02/18 10:11:12;;;;;;;3.47;1.60;;;;;;;;;;5031326;28;20108;-73
2023/02/18 10:13:40;;;;;;;1.98;1.10;;;;;;;;;;5003955;28;20478;-73
2023/02/18 10:16:05;;;;;;;3.63;1.65;;;;;;;;;;5011456;28;20034;-73
2023/02/18 10:18:58;;;;;;;4.43;1.13;;;;;;;;;;5012394;28;20038;-73
2023/02/18 10:21:26;;;;;;;3.17;1.20;;;;;;;;;;5012376;28;20046;-72
2023/02/18 10:24:06;;;;;;;2.78;1.13;;;;;;;;;;5014783;28;20033;-73
2023/02/18 10:26:35;;;;;;;3.20;1.20;;;;;;;;;;4998318;28;20139;-73
2023/02/18 10:29:01;;;;;;;2.72;1.42;;;;;;;;;;5005759;28;20566;-72
2023/02/18 10:31:35;;;;;;;2.75;0.95;;;;;;;;;;5015628;28;20112;-73
2023/02/18 10:34:14;;;;;;;3.17;1.13;;;;;;;;;;5014365;28;20033;-73
2023/02/18 10:36:49;;;;;;;4.60;2.15;;;;;;;;;;5015194;28;20746;-72
2023/02/18 10:39:18;;;;;;;3.13;1.20;;;;;;;;;;5014382;28;20363;-72
2023/02/18 10:42:33;;;;;;;4.20;1.50;;;;;;;;;;5015653;28;20049;-72
2023/02/18 10:45:23;;;;;;;2.03;1.00;;;;;;;;;;5010178;28;20054;-72
2023/02/18 10:47:51;;;;;;;3.00;1.30;;;;;;;;;;5025905;28;20065;-72
2023/02/18 10:50:32;;;;;;;2.47;1.00;;;;;;;;;;5015176;28;20052;-72
2023/02/18 10:53:09;;;;;;;2.15;0.80;;;;;;;;;;5015293;28;20030;-72
2023/02/18 10:55:45;;;;;;;4.82;1.40;;;;;;;;;;5014143;28;20414;-72
2023/02/18 10:58:33;;;;;;;2.13;0.95;;;;;;;;;;5013914;28;20037;-72
2023/02/18 11:01:03;;;;;;;3.90;1.00;;;;;;;;;;4999901;28;20042;-73
2023/02/18 11:03:41;;;;;;;5.93;1.20;;;;;;;;;;5013909;28;20088;-72
2023/02/18 11:06:16;;;;;;;2.67;1.00;;;;;;;;;;5015137;28;20406;-72
2023/02/18 11:08:44;;;;;;;4.07;1.30;;;;;;;;;;5029991;28;20489;-72
2023/02/18 11:11:16;;;;;;;3.10;1.20;;;;;;;;;;5014882;28;20069;-73
2023/02/18 11:13:41;;;;;;;3.72;1.23;;;;;;;;;;5002071;28;20030;-72
2023/02/18 11:16:08;;;;;;;2.53;1.10;;;;;;;;;;5012495;28;20049;-72
2023/02/18 11:18:40;;;;;;;4.70;1.20;;;;;;;;;;4999336;28;20046;-72
2023/02/18 11:21:30;;;;;;;2.90;1.00;;;;;;;;;;5010647;28;20470;-73
2023/02/18 11:23:56;;;;;;;2.58;0.93;;;;;;;;;;5009440;28;20436;-73
2023/02/18 11:26:32;;;;;;;2.47;0.95;;;;;;;;;;5004418;28;20462;-72
2023/02/18 11:29:03;;;;;;;4.82;1.23;;;;;;;;;;5013517;28;20069;-72
2023/02/18 11:31:42;;;;;;;2.72;1.02;;;;;;;;;;5002577;28;20033;-72
2023/02/18 11:34:24;;;;;;;2.42;0.95;;;;;;;;;;5011901;28;20386;-73
2023/02/18 11:36:51;;;;;;;3.70;1.27;;;;;;;;;;5014182;28;20510;-73
2023/02/18 11:39:20;;;;;;;4.28;1.40;;;;;;;;;;5014438;28;20088;-72
2023/02/18 11:41:52;;;;;;;3.58;1.00;;;;;;;;;;5028174;28;20033;-72
2023/02/18 11:44:24;;;;;;;3.53;1.10;;;;;;;;;;5003528;28;20042;-72
2023/02/18 11:47:03;;;;;;;2.45;0.90;;;;;;;;;;5013438;28;20502;-72
2023/02/18 11:49:30;;;;;;;1.77;0.88;;;;;;;;;;5013128;28;20037;-73
2023/02/18 11:52:16;;;;;;;2.92;1.27;;;;;;;;;;5003858;28;20104;-73
2023/02/18 11:54:41;;;;;;;2.83;1.10;;;;;;;;;;5017989;28;20034;-72
2023/02/18 11:57:12;;;;;;;1.75;0.90;;;;;;;;;;5002933;28;20521;-74
2023/02/18 11:59:39;;;;;;;3.33;1.20;;;;;;;;;;5017255;28;20030;-72
2023/02/18 12:02:25;;;;;;;2.25;1.05;;;;;;;;;;5003560;28;20393;-72
2023/02/18 12:05:13;;;;;;;3.45;1.42;;;;;;;;;;5013996;28;20042;-72
2023/02/18 12:07:42;;;;;;;6.63;2.20;;;;;;;;;;5023602;28;20030;-72
2023/02/18 12:10:20;;;;;;;3.90;1.40;;;;;;;;;;5013921;28;20076;-73
2023/02/18 12:13:01;;;;;;;2.47;1.30;;;;;;;;;;5012651;28;20040;-73
2023/02/18 12:16:00;;;;;;;4.18;1.65;;;;;;;;;;5009357;28;20091;-72
2023/02/18 12:19:00;;;;;;;2.42;1.17;;;;;;;;;;5013941;28;20077;-72
2023/02/18 12:22:08;;;;;;;2.08;1.00;;;;;;;;;;5018057;28;20042;-72
2023/02/18 12:25:11;;;;;;;3.50;0.90;;;;;;;;;;5012451;28;20048;-72
2023/02/18 12:27:47;;;;;;;3.08;1.10;;;;;;;;;;5011654;28;20444;-72
2023/02/18 12:30:28;;;;;;;4.32;0.70;;;;;;;;;;5007476;28;20545;-72
2023/02/18 12:33:21;;;;;;;3.60;1.15;;;;;;;;;;5012867;28;20516;-73
2023/02/18 12:36:03;;;;;;;2.67;1.00;;;;;;;;;;5013402;28;20037;-73
2023/02/18 12:38:47;;;;;;;3.03;0.80;;;;;;;;;;5012948;28;20375;-74
2023/02/18 12:41:31;;;;;;;5.22;1.00;;;;;;;;;;5013493;28;20037;-73
2023/02/18 12:44:12;;;;;;;3.40;1.20;;;;;;;;;;5012362;28;20552;-72
2023/02/18 12:46:38;;;;;;;1.83;0.85;;;;;;;;;;5000681;28;20045;-72
2023/02/18 12:49:10;;;;;;;2.40;0.82;;;;;;;;;;5005791;28;20042;-73
2023/02/18 12:51:51;;;;;;;2.45;1.00;;;;;;;;;;5029526;28;20049;-73
2023/02/18 12:54:51;;;;;;;2.30;1.20;;;;;;;;;;5005892;28;20119;-72
2023/02/18 12:57:44;;;;;;;2.30;1.05;;;;;;;;;;5006683;28;20027;-72
2023/02/18 13:00:20;;;;;;;2.58;0.95;;;;;;;;;;5017369;28;20065;-73
2023/02/18 13:03:31;;;;;;;1.70;0.90;;;;;;;;;;5011779;28;20057;-72
2023/02/18 13:06:03;;;;;;;3.42;1.27;;;;;;;;;;5015741;28;20054;-72
2023/02/18 13:08:52;;;;;;;2.90;0.97;;;;;;;;;;5013389;28;20037;-72
2023/02/18 13:11:45;;;;;;;2.72;1.10;;;;;;;;;;5011355;28;20031;-73
2023/02/18 13:14:17;;;;;;;2.88;1.10;;;;;;;;;;5014434;28;20049;-73
2023/02/18 13:16:45;;;;;;;3.65;1.20;;;;;;;;;;5015437;28;20112;-72
2023/02/18 13:19:22;;;;;;;5.00;1.48;;;;;;;;;;5011889;28;20141;-72
2023/02/18 13:21:50;;;;;;;2.60;1.40;;;;;;;;;;5015598;28;20041;-75
2023/02/18 13:24:39;;;;;;;4.05;2.00;;;;;;;;;;5011795;28;20361;-73
2023/02/18 13:27:04;;;;;;;4.57;1.50;;;;;;;;;;5000783;28;20053;-72
2023/02/18 13:29:47;;;;;;;4.10;1.48;;;;;;;;;;5010769;28;20034;-73
2023/02/18 13:32:31;;;;;;;2.63;1.55;;;;;;;;;;5019099;28;20068;-72
2023/02/18 13:35:04;;;;;;;2.95;1.20;;;;;;;;;;5021548;28;20132;-73
2023/02/18 13:37:58;;;;;;;4.25;1.60;;;;;;;;;;5004094;28;20149;-75
2023/02/18 13:40:29;;;;;;;2.80;1.25;;;;;;;;;;5014681;28;20030;-73
2023/02/18 13:43:28;;;;;;;3.17;1.27;;;;;;;;;;5008859;28;20161;-72
2023/02/18 13:46:06;;;;;;;2.20;1.10;;;;;;;;;;5029394;28;20069;-73
2023/02/18 13:48:44;;;;;;;1.95;1.00;;;;;;;;;;5006425;28;20394;-73
2023/02/18 13:51:11;;;;;;;4.18;1.20;;;;;;;;;;5008312;28;20046;-75
2023/02/18 13:53:38;;;;;;;1.80;0.90;;;;;;;;;;5007625;28;20498;-72
2023/02/18 13:56:08;;;;;;;2.70;1.00;;;;;;;;;;5012406;28;20033;-72
2023/02/18 13:58:41;;;;;;;6.28;1.02;;;;;;;;;;5029315;28;20298;-73
2023/02/18 14:01:09;;;;;;;2.10;1.00;;;;;;;;;;5021396;28;20047;-76
2023/02/18 14:03:37;;;;;;;2.70;1.33;;;;;;;;;;5014539;28;20084;-72
2023/02/18 14:06:12;;;;;;;4.60;1.73;;;;;;;;;;5030250;28;20139;-73
2023/02/18 14:08:38;;;;;;;2.95;1.38;;;;;;;;;;5010379;28;20043;-73
2023/02/18 14:11:10;;;;;;;3.65;1.20;;;;;;;;;;5018161;28;20474;-72
2023/02/18 14:13:41;;;;;;;5.45;1.58;;;;;;;;;;5019860;28;20041;-73
2023/02/18 14:16:08;;;;;;;6.25;2.20;;;;;;;;;;5017715;28;20041;-73
2023/02/18 14:18:40;;;;;;;3.28;1.25;;;;;;;;;;5012164;28;20057;-73
2023/02/18 14:21:11;;;;;;;4.10;1.60;;;;;;;;;;5015336;28;20060;-72
2023/02/18 14:23:40;;;;;;;4.55;1.60;;;;;;;;;;5018363;28;20044;-72
2023/02/18 14:26:15;;;;;;;4.53;1.70;;;;;;;;;;5011527;28;20128;-72
2023/02/18 14:28:47;;;;;;;6.57;1.90;;;;;;;;;;5007030;28;20042;-72
2023/02/18 14:31:54;;;;;;;4.38;1.60;;;;;;;;;;5007893;28;20140;-73
2023/02/18 14:34:33;;;;;;;3.38;1.60;;;;;;;;;;4992386;28;20125;-73
2023/02/18 14:37:41;;;;;;;4.43;1.30;;;;;;;;;;5027242;28;20389;-72
2023/02/18 14:40:31;;;;;;;5.80;1.92;;;;;;;;;;5004837;28;20072;-72
2023/02/18 14:43:03;;;;;;;6.13;1.42;;;;;;;;;;5015511;28;20104;-72
2023/02/18 14:45:38;;;;;;;6.75;1.65;;;;;;;;;;5006284;28;20041;-72
2023/02/18 14:48:18;;;;;;;6.40;2.30;;;;;;;;;;5006971;28;20488;-72
2023/02/18 14:50:45;;;;;;;5.18;1.50;;;;;;;;;;5013824;28;20088;-72
2023/02/18 14:53:17;;;;;;;5.70;1.58;;;;;;;;;;5013246;28;20042;-72
2023/02/18 14:55:49;;;;;;;5.90;1.45;;;;;;;;;;5013038;28;20050;-72
2023/02/18 14:58:46;;;;;;;6.10;1.50;;;;;;;;;;5011621;28;20049;-73
2023/02/18 15:01:28;;;;;;;6.13;1.38;;;;;;;;;;5029884;28;20042;-73
2023/02/18 15:03:54;;;;;;;7.60;1.73;;;;;;;;;;5005040;28;20037;-73
2023/02/18 15:06:37;;;;;;;5.55;1.15;;;;;;;;;;5011084;28;20389;-72
2023/02/18 15:09:31;;;;;;;6.00;1.95;;;;;;;;;;5009060;28;20065;-72